Time,TemperatureF,DewpointF,PressureIn,WindDirection,WindDirectionDegrees,WindSpeedMPH,WindSpeedGustMPH,Humidity,HourlyPrecipIn,Conditions,Clouds,dailyrainin,SolarRadiationWatts/m^2,SoftwareType,DateUTC
2013-05-22 00:04:00,79.0,73.0,-100.00,SE,137,4.0,9.0,83,0.00,,,0.18,0.000000,,2013-05-22 04:04:00,
2013-05-22 00:13:00,79.0,73.0,-100.00,SE,137,4.0,9.0,83,0.00,,,0.18,0.000000,,2013-05-22 04:13:00,
2013-05-22 00:23:00,79.0,73.0,-100.00,SE,137,4.0,9.0,83,0.00,,,0.18,0.000000,,2013-05-22 04:23:00,
2013-05-22 00:33:00,79.0,73.0,-100.00,SE,137,4.0,9.0,83,0.00,,,0.18,0.000000,,2013-05-22 04:33:00,
2013-05-22 01:02:00,78.0,73.0,-100.00,SSE,162,5.0,9.0,85,0.00,,,0.18,0.000000,,2013-05-22 05:02:00,
2013-05-22 01:12:00,78.0,73.0,-100.00,SSE,162,5.0,9.0,85,0.00,,,0.18,0.000000,,2013-05-22 05:12:00,
2013-05-22 01:22:00,78.0,73.0,-100.00,SSE,162,5.0,9.0,85,0.00,,,0.18,0.000000,,2013-05-22 05:22:00,
2013-05-22 01:32:00,78.0,73.0,-100.00,SSE,162,5.0,9.0,85,0.00,,,0.18,0.000000,,2013-05-22 05:32:00,
2013-05-22 01:52:00,78.0,73.0,-100.00,SSE,158,4.0,9.0,84,0.00,,,0.18,0.000000,,2013-05-22 05:52:00,
2013-05-22 02:01:00,78.0,73.0,-100.00,SSE,158,4.0,9.0,84,0.00,,,0.18,0.000000,,2013-05-22 06:01:00,
2013-05-22 02:12:00,78.0,73.0,-100.00,SSE,158,4.0,9.0,84,0.00,,,0.18,0.000000,,2013-05-22 06:12:00,
2013-05-22 02:21:00,78.0,73.0,-100.00,SSE,158,4.0,9.0,84,0.00,,,0.18,0.000000,,2013-05-22 06:21:00,
2013-05-22 02:32:00,78.0,73.0,-100.00,SSE,158,4.0,9.0,84,0.00,,,0.18,0.000000,,2013-05-22 06:32:00,
2013-05-22 02:52:00,76.0,72.0,-100.00,SSE,150,2.0,7.0,88,0.00,,,0.18,0.000000,,2013-05-22 06:52:00,
2013-05-22 03:01:00,76.0,72.0,-100.00,SSE,150,2.0,7.0,88,0.00,,,0.18,0.000000,,2013-05-22 07:01:00,
2013-05-22 03:11:00,76.0,72.0,-100.00,SSE,150,2.0,7.0,88,0.00,,,0.18,0.000000,,2013-05-22 07:11:00,
2013-05-22 03:21:00,76.0,72.0,-100.00,SSE,150,2.0,7.0,88,0.00,,,0.18,0.000000,,2013-05-22 07:21:00,
2013-05-22 03:32:00,76.0,72.0,-100.00,SSE,150,2.0,7.0,88,0.00,,,0.18,0.000000,,2013-05-22 07:32:00,
2013-05-22 04:02:00,74.0,71.0,-100.00,ESE,122,2.0,4.0,90,0.00,,,-99.99,0.000000,,2013-05-22 08:02:00,
2013-05-22 04:11:00,74.0,71.0,-100.00,ESE,122,2.0,4.0,90,0.00,,,-99.99,0.000000,,2013-05-22 08:11:00,
2013-05-22 04:22:00,74.0,71.0,-100.00,ESE,122,2.0,4.0,90,0.00,,,-99.99,0.000000,,2013-05-22 08:22:00,
2013-05-22 04:32:00,74.0,71.0,-100.00,ESE,122,2.0,4.0,90,0.00,,,-99.99,0.000000,,2013-05-22 08:32:00,
2013-05-22 05:01:00,76.0,73.0,-100.00,SE,144,2.0,5.0,90,0.00,,,0.18,0.000000,,2013-05-22 09:01:00,
2013-05-22 05:12:00,76.0,73.0,-100.00,SE,144,2.0,5.0,90,0.00,,,0.18,0.000000,,2013-05-22 09:12:00,
2013-05-22 05:22:00,76.0,73.0,-100.00,SE,144,2.0,5.0,90,0.00,,,0.18,0.000000,,2013-05-22 09:22:00,
2013-05-22 05:33:00,76.0,73.0,-100.00,SE,144,2.0,5.0,90,0.00,,,0.18,0.000000,,2013-05-22 09:33:00,
2013-05-22 05:53:00,73.0,71.0,-100.00,SSE,166,0.0,3.0,93,0.00,,,0.18,0.000000,,2013-05-22 09:53:00,
2013-05-22 06:03:00,73.0,71.0,-100.00,SSE,166,0.0,3.0,93,0.00,,,0.18,0.000000,,2013-05-22 10:03:00,
2013-05-22 06:12:00,73.0,71.0,-100.00,SSE,166,0.0,3.0,93,0.00,,,0.18,0.000000,,2013-05-22 10:12:00,
2013-05-22 06:23:00,73.0,71.0,-100.00,SSE,166,0.0,3.0,93,0.00,,,0.18,0.000000,,2013-05-22 10:23:00,
2013-05-22 06:33:00,73.0,71.0,-100.00,SSE,166,0.0,3.0,93,0.00,,,0.18,0.000000,,2013-05-22 10:33:00,
2013-05-22 06:53:00,73.0,71.0,-100.00,SSW,192,2.0,3.0,95,0.00,,,0.18,0.000000,,2013-05-22 10:53:00,
2013-05-22 07:02:00,73.0,71.0,-100.00,SSW,192,2.0,3.0,95,0.00,,,0.18,0.000000,,2013-05-22 11:02:00,
2013-05-22 07:12:00,73.0,71.0,-100.00,SSW,192,2.0,3.0,95,0.00,,,0.18,0.000000,,2013-05-22 11:12:00,
2013-05-22 07:22:00,73.0,71.0,-100.00,SSW,192,2.0,3.0,95,0.00,,,0.18,0.000000,,2013-05-22 11:22:00,
2013-05-22 07:32:00,73.0,71.0,-100.00,SSW,192,2.0,3.0,95,0.00,,,0.18,0.000000,,2013-05-22 11:32:00,
2013-05-22 08:02:00,77.0,75.0,-100.00,South,184,2.0,4.0,93,0.00,,,0.18,54.000000,,2013-05-22 12:02:00,
2013-05-22 08:12:00,77.0,75.0,-100.00,South,184,2.0,4.0,93,0.00,,,0.18,54.000000,,2013-05-22 12:12:00,
2013-05-22 08:22:00,77.0,75.0,-100.00,South,184,2.0,4.0,93,0.00,,,0.18,54.000000,,2013-05-22 12:22:00,
2013-05-22 08:32:00,77.0,75.0,-100.00,South,184,2.0,4.0,93,0.00,,,0.18,54.000000,,2013-05-22 12:32:00,
2013-05-22 08:52:00,83.0,73.0,-100.00,SSW,202,6.0,10.0,73,0.00,,,0.16,224.000000,,2013-05-22 12:52:00,
2013-05-22 09:02:00,83.0,73.0,-100.00,SSW,202,6.0,10.0,73,0.00,,,0.16,224.000000,,2013-05-22 13:02:00,
2013-05-22 09:12:00,83.0,73.0,-100.00,SSW,202,6.0,10.0,73,0.00,,,0.16,224.000000,,2013-05-22 13:12:00,
2013-05-22 09:22:00,83.0,73.0,-100.00,SSW,202,6.0,10.0,73,0.00,,,0.16,224.000000,,2013-05-22 13:22:00,
2013-05-22 09:32:00,83.0,73.0,-100.00,SSW,202,6.0,10.0,73,0.00,,,0.16,224.000000,,2013-05-22 13:32:00,
2013-05-22 09:52:00,85.0,73.0,-100.00,SW,217,7.0,11.0,68,0.00,,,0.15,386.000000,,2013-05-22 13:52:00,
2013-05-22 10:02:00,85.0,73.0,-100.00,SW,217,7.0,11.0,68,0.00,,,0.15,386.000000,,2013-05-22 14:02:00,
2013-05-22 10:11:00,85.0,73.0,-100.00,SW,217,7.0,11.0,68,0.00,,,0.15,386.000000,,2013-05-22 14:11:00,
2013-05-22 10:22:00,85.0,73.0,-100.00,SW,217,7.0,11.0,68,0.00,,,0.15,386.000000,,2013-05-22 14:22:00,
2013-05-22 10:32:00,85.0,73.0,-100.00,SW,217,7.0,11.0,68,0.00,,,0.15,386.000000,,2013-05-22 14:32:00,
2013-05-22 11:02:00,86.0,74.0,-100.00,SSW,208,7.0,12.0,68,0.00,,,0.15,540.000000,,2013-05-22 15:02:00,
2013-05-22 11:11:00,86.0,74.0,-100.00,SSW,208,7.0,12.0,68,0.00,,,0.15,540.000000,,2013-05-22 15:11:00,
2013-05-22 11:22:00,86.0,74.0,-100.00,SSW,208,7.0,12.0,68,0.00,,,0.15,540.000000,,2013-05-22 15:22:00,
2013-05-22 11:32:00,86.0,74.0,-100.00,SSW,208,7.0,12.0,68,0.00,,,0.15,540.000000,,2013-05-22 15:32:00,
2013-05-22 12:03:00,86.0,75.0,-100.00,SW,215,6.0,12.0,69,0.00,,,0.11,586.000000,,2013-05-22 16:03:00,
2013-05-22 12:12:00,86.0,75.0,-100.00,SW,215,6.0,12.0,69,0.00,,,0.11,586.000000,,2013-05-22 16:12:00,
2013-05-22 12:23:00,86.0,75.0,-100.00,SW,215,6.0,12.0,69,0.00,,,0.11,586.000000,,2013-05-22 16:23:00,
2013-05-22 12:33:00,86.0,75.0,-100.00,SW,215,6.0,12.0,69,0.00,,,0.11,586.000000,,2013-05-22 16:33:00,
2013-05-22 13:02:00,89.0,75.0,-100.00,SW,217,6.0,13.0,63,0.00,,,0.08,859.000000,,2013-05-22 17:02:00,
2013-05-22 13:12:00,89.0,75.0,-100.00,SW,217,6.0,13.0,63,0.00,,,0.08,859.000000,,2013-05-22 17:12:00,
2013-05-22 13:23:00,89.0,75.0,-100.00,SW,217,6.0,13.0,63,0.00,,,0.08,859.000000,,2013-05-22 17:23:00,
2013-05-22 13:33:00,89.0,75.0,-100.00,SW,217,6.0,13.0,63,0.00,,,0.08,859.000000,,2013-05-22 17:33:00,
2013-05-22 13:54:00,89.0,73.0,-100.00,SW,216,7.0,12.0,60,0.00,,,0.08,874.000000,,2013-05-22 17:54:00,
2013-05-22 14:02:00,89.0,73.0,-100.00,SW,216,7.0,12.0,60,0.00,,,0.08,874.000000,,2013-05-22 18:02:00,
2013-05-22 14:14:00,89.0,73.0,-100.00,SW,216,7.0,12.0,60,0.00,,,0.08,874.000000,,2013-05-22 18:14:00,
2013-05-22 14:22:00,89.0,73.0,-100.00,SW,216,7.0,12.0,60,0.00,,,0.08,874.000000,,2013-05-22 18:22:00,
2013-05-22 14:34:00,89.0,73.0,-100.00,SW,216,7.0,12.0,60,0.00,,,0.08,874.000000,,2013-05-22 18:34:00,
2013-05-22 14:52:00,90.0,74.0,-100.00,WSW,241,7.0,12.0,60,0.00,,,0.00,795.000000,,2013-05-22 18:52:00,
2013-05-22 15:02:00,90.0,74.0,-100.00,WSW,241,7.0,12.0,60,0.00,,,0.00,795.000000,,2013-05-22 19:02:00,
2013-05-22 15:11:00,90.0,74.0,-100.00,WSW,241,7.0,12.0,60,0.00,,,0.00,795.000000,,2013-05-22 19:11:00,
2013-05-22 15:22:00,90.0,74.0,-100.00,WSW,241,7.0,12.0,60,0.00,,,0.00,795.000000,,2013-05-22 19:22:00,
2013-05-22 15:32:00,90.0,74.0,-100.00,WSW,241,7.0,12.0,60,0.00,,,0.00,795.000000,,2013-05-22 19:32:00,
2013-05-22 16:02:00,89.0,75.0,-100.00,NW,314,8.0,13.0,63,0.00,,,0.00,491.000000,,2013-05-22 20:02:00,
2013-05-22 16:11:00,89.0,75.0,-100.00,NW,314,8.0,13.0,63,0.00,,,0.00,491.000000,,2013-05-22 20:11:00,
2013-05-22 16:22:00,89.0,75.0,-100.00,NW,314,8.0,13.0,63,0.00,,,0.00,491.000000,,2013-05-22 20:22:00,
2013-05-22 16:32:00,89.0,75.0,-100.00,NW,314,8.0,13.0,63,0.00,,,0.00,491.000000,,2013-05-22 20:32:00,
2013-05-22 16:52:00,89.0,73.0,-100.00,WNW,297,7.0,15.0,60,0.00,,,0.00,727.000000,,2013-05-22 20:52:00,
2013-05-22 17:01:00,89.0,73.0,-100.00,WNW,297,7.0,15.0,60,0.00,,,0.00,727.000000,,2013-05-22 21:01:00,
2013-05-22 17:11:00,89.0,73.0,-100.00,WNW,297,7.0,15.0,60,0.00,,,0.00,727.000000,,2013-05-22 21:11:00,
2013-05-22 17:21:00,89.0,73.0,-100.00,WNW,297,7.0,15.0,60,0.00,,,0.00,727.000000,,2013-05-22 21:21:00,
2013-05-22 17:32:00,89.0,73.0,-100.00,WNW,297,7.0,15.0,60,0.00,,,0.00,727.000000,,2013-05-22 21:32:00,
2013-05-22 18:03:00,88.0,75.0,-100.00,NW,305,5.0,14.0,65,0.00,,,0.00,492.000000,,2013-05-22 22:03:00,
2013-05-22 18:13:00,88.0,75.0,-100.00,NW,305,5.0,14.0,65,0.00,,,0.00,492.000000,,2013-05-22 22:13:00,
2013-05-22 18:22:00,88.0,75.0,-100.00,NW,305,5.0,14.0,65,0.00,,,0.00,492.000000,,2013-05-22 22:22:00,
2013-05-22 18:33:00,88.0,75.0,-100.00,NW,305,5.0,14.0,65,0.00,,,0.00,492.000000,,2013-05-22 22:33:00,
2013-05-22 19:02:00,87.0,73.0,-100.00,WNW,295,5.0,10.0,64,0.00,,,0.00,340.000000,,2013-05-22 23:02:00,
2013-05-22 19:12:00,87.0,73.0,-100.00,WNW,295,5.0,10.0,64,0.00,,,0.00,340.000000,,2013-05-22 23:12:00,
2013-05-22 19:22:00,87.0,73.0,-100.00,WNW,295,5.0,10.0,64,0.00,,,0.00,340.000000,,2013-05-22 23:22:00,
2013-05-22 19:32:00,87.0,73.0,-100.00,WNW,295,5.0,10.0,64,0.00,,,0.00,340.000000,,2013-05-22 23:32:00,
2013-05-22 20:02:00,83.0,73.0,-100.00,North,1,4.0,9.0,73,0.00,,,0.00,139.000000,,2013-05-23 00:02:00,
2013-05-22 20:11:00,83.0,73.0,-100.00,North,1,4.0,9.0,73,0.00,,,0.00,139.000000,,2013-05-23 00:11:00,
2013-05-22 20:22:00,83.0,73.0,-100.00,North,1,4.0,9.0,73,0.00,,,0.00,139.000000,,2013-05-23 00:22:00,
2013-05-22 20:32:00,83.0,73.0,-100.00,North,1,4.0,9.0,73,0.00,,,0.00,139.000000,,2013-05-23 00:32:00,
2013-05-22 20:52:00,79.0,73.0,-100.00,North,8,2.0,5.0,82,0.00,,,0.00,11.000000,,2013-05-23 00:52:00,
2013-05-22 21:01:00,79.0,73.0,-100.00,North,8,2.0,5.0,82,0.00,,,0.00,11.000000,,2013-05-23 01:01:00,
2013-05-22 21:11:00,79.0,73.0,-100.00,North,8,2.0,5.0,82,0.00,,,0.00,11.000000,,2013-05-23 01:11:00,
2013-05-22 21:22:00,79.0,73.0,-100.00,North,8,2.0,5.0,82,0.00,,,0.00,11.000000,,2013-05-23 01:22:00,
2013-05-22 21:32:00,79.0,73.0,-100.00,North,8,2.0,5.0,82,0.00,,,0.00,11.000000,,2013-05-23 01:32:00,
2013-05-22 22:02:00,76.0,72.0,-100.00,SW,215,0.0,4.0,88,0.00,,,0.00,0.000000,,2013-05-23 02:02:00,
2013-05-22 22:11:00,76.0,72.0,-100.00,SW,215,0.0,4.0,88,0.00,,,0.00,0.000000,,2013-05-23 02:11:00,
2013-05-22 22:21:00,76.0,72.0,-100.00,SW,215,0.0,4.0,88,0.00,,,0.00,0.000000,,2013-05-23 02:21:00,
2013-05-22 22:32:00,76.0,72.0,-100.00,SW,215,0.0,4.0,88,0.00,,,0.00,0.000000,,2013-05-23 02:32:00,
2013-05-22 23:02:00,75.0,72.0,-100.00,North,355,0.0,0.0,90,0.00,,,0.00,0.000000,,2013-05-23 03:02:00,
2013-05-22 23:11:00,75.0,72.0,-100.00,North,355,0.0,0.0,90,0.00,,,0.00,0.000000,,2013-05-23 03:11:00,
2013-05-22 23:22:00,75.0,72.0,-100.00,North,355,0.0,0.0,90,0.00,,,0.00,0.000000,,2013-05-23 03:22:00,
2013-05-22 23:33:00,75.0,72.0,-100.00,North,355,0.0,0.0,90,0.00,,,0.00,0.000000,,2013-05-23 03:33:00,
2013-05-22 23:53:00,76.0,73.0,-100.00,SSE,160,1.0,3.0,90,0.00,,,0.00,0.000000,,2013-05-23 03:53:00,